| time (UTC) | temp F | wind direction | speed knots | gust knots | rain 1hr in | rain 24hr in | rain mn in | humidity % | barometer mb |
| 20260507065212 | 46 | 255 | 0.0 | 0.0 | 0.00 | 0.00 | 0.00 | 84 | 1024.7 |
| 20260507065204 | 47 | 37 | 0.9 | 2.6 | 0.00 | 0.53 | 0.44 | 94 | 1009.7 |
| 20260507064705 | 47 | 39 | 0.0 | 2.6 | 0.00 | 0.53 | 0.44 | 94 | 1009.6 |
| 20260507064212 | 46 | 255 | 0.0 | 0.0 | 0.00 | 0.00 | 0.00 | 84 | 1024.7 |
| 20260507064205 | 47 | 59 | 0.0 | 2.6 | 0.00 | 0.53 | 0.44 | 94 | 1009.5 |
| 20260507063705 | 47 | 26 | 0.9 | 4.3 | 0.00 | 0.53 | 0.44 | 94 | 1009.5 |
| 20260507063212 | 46 | 255 | 0.0 | 0.0 | 0.00 | 0.00 | 0.00 | 84 | 1024.7 |
| 20260507063205 | 47 | 37 | 0.9 | 2.6 | 0.00 | 0.53 | 0.44 | 94 | 1009.5 |
| 20260507062704 | 47 | 9 | 0.9 | 4.3 | 0.00 | 0.53 | 0.44 | 94 | 1009.4 |
| 20260507062212 | 46 | 255 | 0.0 | 0.0 | 0.00 | 0.00 | 0.00 | 84 | 1024.7 |
| 20260507062204 | 48 | 25 | 1.7 | 4.3 | 0.00 | 0.53 | 0.44 | 94 | 1009.4 |
| 20260507061212 | 46 | 255 | 0.0 | 0.0 | 0.00 | 0.00 | 0.00 | 84 | 1024.7 |
| 20260507061205 | 48 | 49 | 0.9 | 2.6 | 0.00 | 0.53 | 0.44 | 93 | 1009.1 |
| 20260507060705 | 48 | 49 | 1.7 | 4.3 | 0.00 | 0.53 | 0.44 | 93 | 1009.0 |
| 20260507055705 | 48 | 51 | 0.9 | 2.6 | 0.00 | 0.53 | 0.44 | 94 | 1008.9 |
| 20260507055212 | 46 | 255 | 0.0 | 0.0 | 0.00 | 0.00 | 0.00 | 84 | 1024.7 |
| 20260507055205 | 48 | 50 | 1.7 | 2.6 | 0.00 | 0.53 | 0.44 | 94 | 1008.9 |
| 20260507054212 | 46 | 255 | 0.0 | 0.0 | 0.00 | 0.00 | 0.00 | 84 | 1024.7 |
| 20260507054205 | 48 | 343 | 0.9 | 2.6 | 0.00 | 0.53 | 0.44 | 93 | 1008.9 |
| 20260507053705 | 48 | 22 | 1.7 | 6.1 | 0.00 | 0.53 | 0.44 | 93 | 1008.8 |
| 20260507053212 | 46 | 255 | 0.0 | 0.0 | 0.00 | 0.00 | 0.00 | 84 | 1024.7 |
| 20260507053205 | 48 | 100 | 0.9 | 4.3 | 0.00 | 0.53 | 0.44 | 93 | 1008.8 |
| 20260507052705 | 48 | 83 | 0.9 | 6.1 | 0.00 | 0.53 | 0.44 | 93 | 1008.6 |
| 20260507051705 | 48 | 23 | 1.7 | 4.3 | 0.01 | 0.54 | 0.44 | 94 | 1008.5 |
| 20260507051212 | 46 | 255 | 0.0 | 0.0 | 0.00 | 0.00 | 0.00 | 84 | 1024.7 |
| 20260507051204 | 48 | 32 | 0.9 | 2.6 | 0.01 | 0.54 | 0.44 | 94 | 1008.4 |
| 20260507050705 | 48 | 14 | 0.9 | 4.3 | 0.02 | 0.54 | 0.44 | 94 | 1008.4 |
| 20260507050212 | 46 | 255 | 0.0 | 0.0 | 0.00 | 0.00 | 0.00 | 84 | 1024.7 |
| 20260507050205 | 48 | 96 | 1.7 | 2.6 | 0.02 | 0.54 | 0.44 | 94 | 1008.3 |
| 20260507045705 | 49 | 96 | 0.9 | 4.3 | 0.02 | 0.54 | 0.44 | 93 | 1008.4 |
| 20260507045212 | 46 | 255 | 0.0 | 0.0 | 0.00 | 0.00 | 0.00 | 84 | 1024.7 |
| 20260507045205 | 49 | 96 | 0.9 | 1.7 | 0.02 | 0.54 | 0.44 | 93 | 1008.3 |
| 20260507044212 | 46 | 255 | 0.0 | 0.0 | 0.00 | 0.00 | 0.00 | 84 | 1024.7 |
| 20260507044205 | 49 | 96 | 0.0 | 0.9 | 0.02 | 0.54 | 0.44 | 93 | 1008.2 |
| 20260507043212 | 46 | 255 | 0.0 | 0.0 | 0.00 | 0.00 | 0.00 | 84 | 1024.7 |
| 20260507043205 | 49 | 96 | 0.0 | 0.9 | 0.02 | 0.54 | 0.44 | 93 | 1008.1 |
| 20260507042705 | 49 | 96 | 0.9 | 2.6 | 0.03 | 0.54 | 0.44 | 93 | 1008.0 |
| 20260507042212 | 46 | 255 | 0.0 | 0.0 | 0.00 | 0.00 | 0.00 | 84 | 1024.7 |
| 20260507042204 | 49 | 96 | 0.9 | 2.6 | 0.02 | 0.53 | 0.43 | 93 | 1008.1 |
| 20260507041704 | 49 | 96 | 0.9 | 1.7 | 0.03 | 0.53 | 0.43 | 94 | 1008.1 |
| 20260507041212 | 46 | 255 | 0.0 | 0.0 | 0.00 | 0.00 | 0.00 | 84 | 1024.7 |
| 20260507041204 | 49 | 96 | 0.0 | 0.0 | 0.03 | 0.53 | 0.43 | 94 | 1008.1 |
| 20260507040705 | 49 | 96 | 0.0 | 0.0 | 0.03 | 0.52 | 0.43 | 93 | 1008.1 |
| 20260507040212 | 46 | 255 | 0.0 | 0.0 | 0.00 | 0.00 | 0.00 | 84 | 1024.7 |
| 20260507040205 | 49 | 96 | 0.0 | 0.0 | 0.04 | 0.52 | 0.43 | 93 | 1008.0 |
| 20260507035705 | 49 | 96 | 0.0 | 0.0 | 0.06 | 0.51 | 0.42 | 93 | 1008.0 |
| 20260507035212 | 46 | 255 | 0.0 | 0.0 | 0.00 | 0.00 | 0.00 | 84 | 1024.7 |
| 20260507035204 | 49 | 96 | 0.0 | 0.0 | 0.08 | 0.51 | 0.42 | 93 | 1008.0 |
| 20260507034705 | 49 | 96 | 0.0 | 0.0 | 0.09 | 0.51 | 0.42 | 93 | 1007.9 |
| 20260507034212 | 46 | 255 | 0.0 | 0.0 | 0.00 | 0.00 | 0.00 | 84 | 1024.7 |
| 20260507034205 | 49 | 96 | 0.0 | 0.0 | 0.09 | 0.51 | 0.42 | 94 | 1007.9 |
| 20260507033211 | 46 | 255 | 0.0 | 0.0 | 0.00 | 0.00 | 0.00 | 84 | 1024.7 |
| 20260507033205 | 49 | 96 | 0.0 | 0.0 | 0.09 | 0.51 | 0.42 | 94 | 1007.8 |
| 20260507032211 | 46 | 255 | 0.0 | 0.0 | 0.00 | 0.00 | 0.00 | 84 | 1024.7 |
| 20260507032205 | 49 | 96 | 0.0 | 0.0 | 0.09 | 0.50 | 0.41 | 94 | 1007.8 |
| 20260507031705 | 49 | 96 | 0.0 | 0.0 | 0.09 | 0.50 | 0.40 | 94 | 1007.7 |
| 20260507031211 | 46 | 255 | 0.0 | 0.0 | 0.00 | 0.00 | 0.00 | 84 | 1024.7 |
| 20260507031205 | 49 | 96 | 0.0 | 0.0 | 0.09 | 0.50 | 0.40 | 93 | 1007.8 |
| 20260507030705 | 49 | 96 | 0.0 | 0.9 | 0.09 | 0.49 | 0.39 | 93 | 1007.7 |
| 20260507030211 | 46 | 255 | 0.0 | 0.0 | 0.00 | 0.00 | 0.00 | 84 | 1024.7 |
| 20260507030205 | 49 | 96 | 0.0 | 1.7 | 0.10 | 0.48 | 0.39 | 93 | 1007.6 |
| 20260507025704 | 49 | 96 | 0.0 | 0.9 | 0.09 | 0.46 | 0.36 | 93 | 1007.5 |
| 20260507024704 | 49 | 96 | 0.0 | 0.9 | 0.08 | 0.43 | 0.33 | 93 | 1007.3 |
| 20260507024211 | 46 | 255 | 0.0 | 0.0 | 0.00 | 0.00 | 0.00 | 84 | 1024.7 |
| 20260507024205 | 49 | 96 | 0.9 | 2.6 | 0.08 | 0.42 | 0.32 | 93 | 1007.4 |
| 20260507023704 | 49 | 103 | 0.0 | 1.7 | 0.09 | 0.42 | 0.32 | 93 | 1007.4 |
| 20260507023211 | 46 | 255 | 0.0 | 0.0 | 0.00 | 0.00 | 0.00 | 84 | 1024.7 |
| 20260507023205 | 49 | 103 | 0.0 | 2.6 | 0.09 | 0.42 | 0.32 | 93 | 1007.4 |
| 20260507022704 | 49 | 117 | 0.0 | 1.7 | 0.09 | 0.42 | 0.32 | 93 | 1007.4 |
| 20260507022211 | 46 | 255 | 0.0 | 0.0 | 0.00 | 0.00 | 0.00 | 84 | 1024.7 |
| 20260507022205 | 49 | 117 | 0.0 | 1.7 | 0.08 | 0.41 | 0.31 | 93 | 1007.3 |
| 20260507021211 | 46 | 255 | 0.0 | 0.0 | 0.00 | 0.00 | 0.00 | 84 | 1024.7 |
| 20260507021205 | 49 | 117 | 0.0 | 1.7 | 0.08 | 0.40 | 0.31 | 93 | 1007.2 |
| 20260507020705 | 49 | 117 | 0.0 | 0.0 | 0.08 | 0.39 | 0.30 | 93 | 1007.2 |
| 20260507020211 | 46 | 255 | 0.0 | 0.0 | 0.00 | 0.00 | 0.00 | 84 | 1024.7 |
| 20260507020204 | 49 | 117 | 0.0 | 0.9 | 0.08 | 0.38 | 0.28 | 93 | 1007.2 |
| 20260507015704 | 49 | 117 | 0.0 | 1.7 | 0.08 | 0.36 | 0.27 | 93 | 1007.3 |
| 20260507015211 | 46 | 255 | 0.0 | 0.0 | 0.00 | 0.00 | 0.00 | 84 | 1024.7 |
| 20260507015204 | 49 | 117 | 0.9 | 1.7 | 0.08 | 0.35 | 0.26 | 93 | 1007.3 |
| 20260507014704 | 49 | 117 | 0.0 | 1.7 | 0.08 | 0.35 | 0.25 | 93 | 1007.2 |
| 20260507014211 | 46 | 255 | 0.0 | 0.0 | 0.00 | 0.00 | 0.00 | 84 | 1024.7 |
| 20260507014204 | 49 | 113 | 0.9 | 4.3 | 0.08 | 0.34 | 0.24 | 93 | 1007.1 |
| 20260507013704 | 49 | 40 | 0.0 | 2.6 | 0.07 | 0.33 | 0.24 | 93 | 1007.2 |
| 20260507012705 | 49 | 69 | 0.9 | 2.6 | 0.09 | 0.33 | 0.24 | 93 | 1007.1 |
| 20260507011704 | 49 | 82 | 0.0 | 1.7 | 0.14 | 0.32 | 0.23 | 93 | 1007.1 |
| 20260507010705 | 49 | 18 | 2.6 | 7.0 | 0.20 | 0.31 | 0.22 | 93 | 1007.1 |
| 20260507010211 | 46 | 255 | 0.0 | 0.0 | 0.00 | 0.00 | 0.00 | 84 | 1024.7 |
| 20260507010205 | 49 | 7 | 1.7 | 4.3 | 0.20 | 0.30 | 0.20 | 93 | 1007.3 |
| 20260507005704 | 49 | 28 | 0.9 | 4.3 | 0.19 | 0.28 | 0.19 | 93 | 1007.3 |
| 20260507005211 | 46 | 255 | 0.0 | 0.0 | 0.00 | 0.00 | 0.00 | 84 | 1024.7 |
| 20260507005205 | 50 | 330 | 1.7 | 6.1 | 0.18 | 0.28 | 0.18 | 93 | 1007.2 |
| 20260507004211 | 46 | 255 | 0.0 | 0.0 | 0.00 | 0.00 | 0.00 | 84 | 1024.7 |
| 20260507004204 | 50 | 316 | 4.3 | 10.4 | 0.17 | 0.26 | 0.17 | 93 | 1007.4 |
| 20260507003704 | 50 | 287 | 6.1 | 10.4 | 0.17 | 0.26 | 0.17 | 93 | 1007.4 |
| 20260507003211 | 46 | 255 | 0.0 | 0.0 | 0.00 | 0.00 | 0.00 | 84 | 1024.7 |
| 20260507003205 | 50 | 263 | 4.3 | 7.0 | 0.16 | 0.25 | 0.16 | 93 | 1007.3 |
| 20260507002704 | 50 | 284 | 3.5 | 7.8 | 0.14 | 0.24 | 0.14 | 93 | 1007.2 |
| 20260507002211 | 46 | 255 | 0.0 | 0.0 | 0.00 | 0.00 | 0.00 | 84 | 1024.7 |
| 20260507002204 | 50 | 307 | 6.1 | 12.2 | 0.12 | 0.21 | 0.12 | 93 | 1007.1 |
| 20260507001704 | 51 | 308 | 5.2 | 10.4 | 0.09 | 0.18 | 0.09 | 93 | 1007.1 |
| 20260507001211 | 46 | 255 | 0.0 | 0.0 | 0.00 | 0.00 | 0.00 | 84 | 1024.7 |
| 20260507001204 | 51 | 309 | 5.2 | 7.0 | 0.04 | 0.13 | 0.04 | 93 | 1007.1 |
| 20260507000704 | 51 | 328 | 4.3 | 7.0 | 0.02 | 0.11 | 0.02 | 93 | 1007.1 |
| 20260507000212 | 46 | 255 | 0.0 | 0.0 | 0.00 | 0.00 | 0.00 | 84 | 1024.7 |
| 20260507000205 | 51 | 320 | 5.2 | 10.4 | 0.01 | 0.10 | 0.01 | 93 | 1007.0 |
| 20260506235704 | 51 | 303 | 4.3 | 6.1 | 0.00 | 0.09 | 0.00 | 93 | 1006.7 |
| 20260506235211 | 46 | 255 | 0.0 | 0.0 | 0.00 | 0.00 | 0.00 | 84 | 1024.7 |
| 20260506235204 | 51 | 331 | 2.6 | 5.2 | 0.00 | 0.09 | 0.00 | 93 | 1006.7 |
| 20260506234704 | 51 | 290 | 1.7 | 4.3 | 0.00 | 0.10 | 0.00 | 93 | 1006.6 |
| 20260506234211 | 46 | 255 | 0.0 | 0.0 | 0.00 | 0.00 | 0.00 | 84 | 1024.7 |
| 20260506234204 | 51 | 39 | 1.7 | 4.3 | 0.00 | 0.11 | 0.00 | 93 | 1006.6 |
| 20260506233704 | 52 | 39 | 1.7 | 4.3 | 0.00 | 0.13 | 0.00 | 93 | 1006.6 |
| 20260506233210 | 46 | 255 | 0.0 | 0.0 | 0.00 | 0.00 | 0.00 | 84 | 1024.7 |
| 20260506233205 | 52 | 39 | 0.0 | 2.6 | 0.00 | 0.14 | 0.00 | 93 | 1006.4 |
| 20260506232704 | 52 | 76 | 1.7 | 4.3 | 0.00 | 0.16 | 0.00 | 93 | 1006.4 |
| 20260506231704 | 52 | 77 | 0.9 | 2.6 | 0.00 | 0.19 | 0.00 | 93 | 1006.2 |
| 20260506230704 | 52 | 48 | 0.9 | 4.3 | 0.00 | 0.23 | 0.00 | 93 | 1006.2 |
| 20260506230210 | 46 | 255 | 0.0 | 0.0 | 0.00 | 0.00 | 0.00 | 84 | 1024.7 |
| 20260506230204 | 52 | 5 | 1.7 | 5.2 | 0.00 | 0.24 | 0.00 | 92 | 1006.1 |
| 20260506225704 | 52 | 7 | 2.6 | 7.0 | 0.00 | 0.25 | 0.00 | 93 | 1006.2 |
| 20260506225211 | 46 | 255 | 0.0 | 0.0 | 0.00 | 0.00 | 0.00 | 84 | 1024.7 |
| 20260506225204 | 52 | 23 | 1.7 | 6.1 | 0.00 | 0.27 | 0.00 | 93 | 1006.2 |
| 20260506224210 | 46 | 255 | 0.0 | 0.0 | 0.00 | 0.00 | 0.00 | 84 | 1024.7 |
| 20260506224204 | 52 | 43 | 2.6 | 7.8 | 0.00 | 0.29 | 0.00 | 92 | 1006.5 |
| 20260506223704 | 52 | 27 | 2.6 | 6.1 | 0.00 | 0.31 | 0.00 | 92 | 1006.4 |
| 20260506223210 | 46 | 255 | 0.0 | 0.0 | 0.00 | 0.00 | 0.00 | 84 | 1024.7 |
| 20260506223204 | 52 | 352 | 2.6 | 5.2 | 0.00 | 0.37 | 0.00 | 92 | 1006.4 |
| 20260506222704 | 52 | 0 | 1.7 | 5.2 | 0.00 | 0.43 | 0.00 | 92 | 1006.4 |
| 20260506222210 | 46 | 255 | 0.0 | 0.0 | 0.00 | 0.00 | 0.00 | 84 | 1024.7 |
| 20260506222204 | 53 | 8 | 1.7 | 5.2 | 0.00 | 0.50 | 0.00 | 92 | 1006.4 |
| 20260506221704 | 53 | 350 | 4.3 | 7.0 | 0.00 | 0.52 | 0.00 | 92 | 1006.3 |
| 20260506221210 | 46 | 255 | 0.0 | 0.0 | 0.00 | 0.00 | 0.00 | 84 | 1024.7 |
| 20260506221204 | 53 | 4 | 1.7 | 6.1 | 0.00 | 0.57 | 0.00 | 92 | 1006.3 |
| 20260506220704 | 54 | 23 | 1.7 | 5.2 | 0.00 | 0.57 | 0.00 | 92 | 1006.2 |
| 20260506220210 | 46 | 255 | 0.0 | 0.0 | 0.00 | 0.00 | 0.00 | 84 | 1024.7 |
| 20260506220205 | 54 | 51 | 2.6 | 5.2 | 0.00 | 0.57 | 0.00 | 92 | 1006.1 |
| 20260506215704 | 54 | 9 | 1.7 | 5.2 | 0.00 | 0.58 | 0.57 | 92 | 1006.2 |
| 20260506215210 | 46 | 255 | 0.0 | 0.0 | 0.00 | 0.00 | 0.00 | 84 | 1024.7 |
| 20260506215204 | 54 | 63 | 0.0 | 2.6 | 0.00 | 0.58 | 0.57 | 92 | 1006.0 |
| 20260506214704 | 54 | 63 | 0.9 | 2.6 | 0.00 | 0.58 | 0.57 | 92 | 1006.1 |
| 20260506214210 | 46 | 255 | 0.0 | 0.0 | 0.00 | 0.00 | 0.00 | 84 | 1024.7 |
| 20260506214204 | 54 | 49 | 0.9 | 4.3 | 0.01 | 0.58 | 0.57 | 92 | 1006.0 |
| 20260506213704 | 54 | 82 | 0.0 | 0.9 | 0.01 | 0.58 | 0.57 | 92 | 1006.0 |
| 20260506213210 | 46 | 255 | 0.0 | 0.0 | 0.00 | 0.00 | 0.00 | 84 | 1024.7 |
| 20260506213204 | 54 | 82 | 0.9 | 2.6 | 0.01 | 0.58 | 0.57 | 92 | 1006.1 |
| 20260506212210 | 46 | 255 | 0.0 | 0.0 | 0.00 | 0.00 | 0.00 | 84 | 1024.7 |
| 20260506212205 | 54 | 82 | 1.7 | 6.1 | 0.02 | 0.58 | 0.57 | 92 | 1006.1 |
| 20260506211704 | 54 | 81 | 0.9 | 2.6 | 0.02 | 0.58 | 0.57 | 92 | 1006.1 |
| 20260506211210 | 46 | 255 | 0.0 | 0.0 | 0.00 | 0.00 | 0.00 | 84 | 1024.7 |
| 20260506211205 | 54 | 52 | 1.7 | 4.3 | 0.02 | 0.58 | 0.57 | 92 | 1006.1 |
| 20260506210704 | 54 | 9 | 1.7 | 2.6 | 0.02 | 0.58 | 0.57 | 92 | 1006.0 |
| 20260506210210 | 46 | 255 | 0.0 | 0.0 | 0.00 | 0.00 | 0.00 | 84 | 1024.7 |
| 20260506210204 | 55 | 43 | 1.7 | 4.3 | 0.02 | 0.58 | 0.57 | 92 | 1006.1 |
| 20260506205704 | 55 | 348 | 1.7 | 4.3 | 0.02 | 0.58 | 0.57 | 92 | 1005.9 |
| 20260506205210 | 46 | 255 | 0.0 | 0.0 | 0.00 | 0.00 | 0.00 | 84 | 1024.7 |
| 20260506205204 | 55 | 55 | 1.7 | 5.2 | 0.02 | 0.58 | 0.57 | 92 | 1005.8 |
| 20260506204704 | 55 | 316 | 1.7 | 5.2 | 0.02 | 0.58 | 0.57 | 92 | 1005.7 |
| 20260506204210 | 46 | 255 | 0.0 | 0.0 | 0.00 | 0.00 | 0.00 | 84 | 1024.7 |
| 20260506204204 | 55 | 39 | 1.7 | 5.2 | 0.01 | 0.57 | 0.57 | 91 | 1005.8 |
| 20260506203704 | 55 | 25 | 2.6 | 6.1 | 0.01 | 0.57 | 0.57 | 91 | 1005.7 |
| 20260506202704 | 55 | 348 | 2.6 | 6.1 | 0.01 | 0.57 | 0.57 | 91 | 1005.8 |
| 20260506202210 | 46 | 255 | 0.0 | 0.0 | 0.00 | 0.00 | 0.00 | 84 | 1024.7 |
| 20260506202203 | 55 | 2 | 2.6 | 6.1 | 0.00 | 0.57 | 0.56 | 91 | 1005.8 |
| 20260506201704 | 56 | 8 | 2.6 | 6.1 | 0.00 | 0.57 | 0.56 | 91 | 1005.8 |
| 20260506201210 | 46 | 255 | 0.0 | 0.0 | 0.00 | 0.00 | 0.00 | 84 | 1024.7 |
| 20260506201204 | 56 | 8 | 2.6 | 5.2 | 0.00 | 0.57 | 0.56 | 91 | 1005.9 |
| 20260506200704 | 56 | 293 | 0.9 | 2.6 | 0.00 | 0.57 | 0.56 | 91 | 1005.8 |
| 20260506200210 | 46 | 255 | 0.0 | 0.0 | 0.00 | 0.00 | 0.00 | 84 | 1024.7 |
| 20260506200204 | 56 | 5 | 0.9 | 2.6 | 0.00 | 0.57 | 0.56 | 91 | 1005.7 |
| 20260506195704 | 56 | 311 | 1.7 | 4.3 | 0.00 | 0.57 | 0.56 | 91 | 1005.6 |
| 20260506195210 | 46 | 255 | 0.0 | 0.0 | 0.00 | 0.00 | 0.00 | 84 | 1024.7 |
| 20260506195204 | 56 | 354 | 0.9 | 4.3 | 0.00 | 0.57 | 0.56 | 91 | 1005.7 |
| 20260506194704 | 56 | 62 | 0.0 | 2.6 | 0.00 | 0.57 | 0.56 | 91 | 1005.7 |
| 20260506194210 | 46 | 255 | 0.0 | 0.0 | 0.00 | 0.00 | 0.00 | 84 | 1024.7 |
| 20260506194205 | 56 | 67 | 0.9 | 2.6 | 0.00 | 0.57 | 0.56 | 91 | 1005.6 |
| 20260506193704 | 57 | 105 | 0.0 | 0.0 | 0.00 | 0.57 | 0.56 | 91 | 1005.5 |
| 20260506193210 | 46 | 255 | 0.0 | 0.0 | 0.00 | 0.00 | 0.00 | 84 | 1024.7 |
| 20260506193204 | 57 | 105 | 0.0 | 0.0 | 0.00 | 0.57 | 0.56 | 91 | 1005.6 |
| 20260506192704 | 57 | 148 | 0.9 | 1.7 | 0.00 | 0.57 | 0.56 | 91 | 1005.5 |
| 20260506191705 | 57 | 83 | 0.0 | 0.9 | 0.00 | 0.57 | 0.56 | 90 | 1005.5 |
| 20260506191210 | 46 | 255 | 0.0 | 0.0 | 0.00 | 0.00 | 0.00 | 84 | 1024.7 |
| 20260506191204 | 57 | 83 | 0.0 | 0.0 | 0.00 | 0.57 | 0.56 | 91 | 1005.4 |
| 20260506190705 | 57 | 83 | 0.0 | 1.7 | 0.00 | 0.57 | 0.56 | 90 | 1005.3 |
| 20260506190210 | 46 | 255 | 0.0 | 0.0 | 0.00 | 0.00 | 0.00 | 84 | 1024.7 |
| 20260506190205 | 57 | 76 | 1.7 | 2.6 | 0.00 | 0.57 | 0.56 | 90 | 1005.4 |
| 20260506185704 | 57 | 101 | 0.0 | 0.9 | 0.00 | 0.57 | 0.56 | 90 | 1005.3 |
| 20260506185210 | 46 | 255 | 0.0 | 0.0 | 0.00 | 0.00 | 0.00 | 84 | 1024.7 |
| 20260506185204 | 58 | 101 | 0.0 | 1.7 | 0.00 | 0.57 | 0.56 | 90 | 1005.2 |
| 20260506184704 | 58 | 101 | 0.0 | 0.0 | 0.00 | 0.57 | 0.56 | 90 | 1005.2 |
| 20260506184210 | 46 | 255 | 0.0 | 0.0 | 0.00 | 0.00 | 0.00 | 84 | 1024.7 |
| 20260506184204 | 58 | 101 | 0.0 | 0.0 | 0.00 | 0.57 | 0.56 | 90 | 1005.0 |
| 20260506183704 | 58 | 95 | 0.9 | 1.7 | 0.00 | 0.57 | 0.56 | 89 | 1005.0 |
| 20260506183210 | 46 | 255 | 0.0 | 0.0 | 0.00 | 0.00 | 0.00 | 84 | 1024.7 |
| 20260506183204 | 58 | 138 | 0.0 | 0.9 | 0.00 | 0.57 | 0.56 | 89 | 1004.9 |
| 20260506181704 | 58 | 232 | 0.0 | 2.6 | 0.00 | 0.57 | 0.56 | 89 | 1004.8 |
| 20260506181210 | 46 | 255 | 0.0 | 0.0 | 0.00 | 0.00 | 0.00 | 84 | 1024.7 |
| 20260506181204 | 59 | 174 | 0.0 | 0.0 | 0.00 | 0.57 | 0.56 | 89 | 1004.8 |
| 20260506180704 | 59 | 173 | 0.0 | 1.7 | 0.00 | 0.57 | 0.56 | 89 | 1004.8 |
| 20260506180210 | 46 | 255 | 0.0 | 0.0 | 0.00 | 0.00 | 0.00 | 84 | 1024.7 |
| 20260506180204 | 59 | 169 | 0.0 | 1.7 | 0.00 | 0.57 | 0.56 | 89 | 1004.8 |
| 20260506175704 | 59 | 121 | 1.7 | 4.3 | 0.00 | 0.57 | 0.56 | 88 | 1004.7 |
| 20260506174704 | 59 | 341 | 2.6 | 7.0 | 0.01 | 0.57 | 0.56 | 88 | 1004.6 |
| 20260506173704 | 60 | 256 | 1.7 | 2.6 | 0.02 | 0.57 | 0.56 | 88 | 1004.6 |
| 20260506173210 | 46 | 255 | 0.0 | 0.0 | 0.00 | 0.00 | 0.00 | 84 | 1024.7 |
| 20260506173203 | 60 | 296 | 1.7 | 2.6 | 0.02 | 0.57 | 0.56 | 89 | 1004.5 |
| 20260506172704 | 60 | 288 | 0.0 | 0.0 | 0.03 | 0.57 | 0.56 | 89 | 1004.5 |
| 20260506172209 | 46 | 255 | 0.0 | 0.0 | 0.00 | 0.00 | 0.00 | 84 | 1024.7 |
| 20260506172203 | 60 | 288 | 0.0 | 0.0 | 0.04 | 0.57 | 0.56 | 89 | 1004.5 |
| 20260506171703 | 60 | 288 | 0.0 | 0.0 | 0.06 | 0.57 | 0.56 | 88 | 1004.5 |
| 20260506171209 | 46 | 255 | 0.0 | 0.0 | 0.00 | 0.00 | 0.00 | 84 | 1024.7 |
| 20260506171204 | 60 | 288 | 0.0 | 2.6 | 0.06 | 0.57 | 0.56 | 88 | 1004.5 |
| 20260506170704 | 60 | 282 | 2.6 | 5.2 | 0.06 | 0.57 | 0.56 | 88 | 1004.6 |
| 20260506170210 | 46 | 255 | 0.0 | 0.0 | 0.00 | 0.00 | 0.00 | 84 | 1024.7 |
| 20260506170204 | 61 | 277 | 1.7 | 4.3 | 0.06 | 0.57 | 0.56 | 87 | 1004.6 |
| 20260506165703 | 61 | 171 | 0.9 | 1.7 | 0.06 | 0.57 | 0.56 | 86 | 1004.5 |
| 20260506165214 | 46 | 255 | 0.0 | 0.0 | 0.00 | 0.00 | 0.00 | 84 | 1024.7 |
| 20260506165206 | 62 | 144 | 0.9 | 1.7 | 0.06 | 0.57 | 0.56 | 86 | 1004.3 |
| 20260506164706 | 62 | 198 | 0.9 | 1.7 | 0.06 | 0.56 | 0.55 | 85 | 1004.3 |
| 20260506163706 | 62 | 177 | 0.0 | 0.9 | 0.04 | 0.54 | 0.54 | 83 | 1004.2 |
| 20260506163214 | 46 | 255 | 0.0 | 0.0 | 0.00 | 0.00 | 0.00 | 84 | 1024.7 |
| 20260506163205 | 63 | 28 | 0.9 | 2.6 | 0.04 | 0.54 | 0.54 | 82 | 1004.1 |
| 20260506162706 | 63 | 18 | 0.0 | 1.7 | 0.03 | 0.54 | 0.53 | 82 | 1004.1 |
| 20260506162214 | 46 | 255 | 0.0 | 0.0 | 0.00 | 0.00 | 0.00 | 84 | 1024.7 |
| 20260506162206 | 64 | 100 | 0.0 | 0.9 | 0.02 | 0.53 | 0.52 | 81 | 1004.1 |
| 20260506161706 | 64 | 100 | 0.0 | 0.9 | 0.01 | 0.51 | 0.50 | 80 | 1004.2 |
| 20260506160706 | 64 | 100 | 1.7 | 4.3 | 0.01 | 0.50 | 0.50 | 78 | 1004.2 |
| 20260506160214 | 46 | 255 | 0.0 | 0.0 | 0.00 | 0.00 | 0.00 | 84 | 1024.7 |
| 20260506160206 | 65 | 92 | 0.9 | 2.6 | 0.01 | 0.50 | 0.50 | 78 | 1004.3 |
| 20260506155706 | 65 | 127 | 0.0 | 1.7 | 0.01 | 0.50 | 0.50 | 77 | 1004.3 |
| 20260506155214 | 46 | 255 | 0.0 | 0.0 | 0.00 | 0.00 | 0.00 | 84 | 1024.7 |
| 20260506155206 | 65 | 149 | 0.9 | 4.3 | 0.01 | 0.50 | 0.50 | 78 | 1004.3 |
| 20260506154706 | 66 | 128 | 0.9 | 4.3 | 0.01 | 0.50 | 0.50 | 77 | 1004.3 |
| 20260506154214 | 46 | 255 | 0.0 | 0.0 | 0.00 | 0.00 | 0.00 | 84 | 1024.7 |
| 20260506154205 | 65 | 73 | 0.0 | 2.6 | 0.01 | 0.50 | 0.50 | 75 | 1004.2 |
| 20260506153705 | 65 | 113 | 0.9 | 1.7 | 0.01 | 0.50 | 0.50 | 73 | 1004.3 |
| 20260506153214 | 46 | 255 | 0.0 | 0.0 | 0.00 | 0.00 | 0.00 | 84 | 1024.7 |
| 20260506153205 | 65 | 113 | 0.9 | 2.6 | 0.01 | 0.50 | 0.50 | 74 | 1004.3 |
| 20260506152706 | 65 | 113 | 0.9 | 1.7 | 0.01 | 0.50 | 0.50 | 74 | 1004.3 |
| 20260506152214 | 46 | 255 | 0.0 | 0.0 | 0.00 | 0.00 | 0.00 | 84 | 1024.7 |
| 20260506152206 | 65 | 99 | 0.9 | 2.6 | 0.01 | 0.50 | 0.50 | 74 | 1004.3 |
| 20260506151214 | 46 | 255 | 0.0 | 0.0 | 0.00 | 0.00 | 0.00 | 84 | 1024.7 |
| 20260506151206 | 66 | 13 | 2.6 | 4.3 | 0.01 | 0.50 | 0.50 | 69 | 1004.4 |
| 20260506150706 | 66 | 349 | 0.9 | 4.3 | 0.00 | 0.50 | 0.49 | 68 | 1004.4 |
| 20260506150214 | 46 | 255 | 0.0 | 0.0 | 0.00 | 0.00 | 0.00 | 84 | 1024.7 |
| 20260506150206 | 66 | 298 | 1.7 | 2.6 | 0.00 | 0.50 | 0.49 | 67 | 1004.4 |
| 20260506145705 | 67 | 331 | 1.7 | 5.2 | 0.00 | 0.50 | 0.49 | 65 | 1004.4 |
| 20260506145214 | 46 | 255 | 0.0 | 0.0 | 0.00 | 0.00 | 0.00 | 84 | 1024.7 |
| 20260506145206 | 67 | 339 | 1.7 | 5.2 | 0.00 | 0.50 | 0.49 | 65 | 1004.4 |
| 20260506144705 | 68 | 283 | 2.6 | 5.2 | 0.00 | 0.50 | 0.49 | 64 | 1004.3 |
| 20260506144214 | 46 | 255 | 0.0 | 0.0 | 0.00 | 0.00 | 0.00 | 84 | 1024.7 |
| 20260506144205 | 68 | 352 | 0.9 | 5.2 | 0.00 | 0.50 | 0.49 | 59 | 1004.3 |
| 20260506143705 | 68 | 334 | 2.6 | 5.2 | 0.00 | 0.50 | 0.49 | 57 | 1004.3 |
| 20260506143214 | 46 | 255 | 0.0 | 0.0 | 0.00 | 0.00 | 0.00 | 84 | 1024.7 |
| 20260506143205 | 68 | 269 | 1.7 | 7.0 | 0.00 | 0.50 | 0.49 | 57 | 1004.3 |
| 20260506142706 | 68 | 246 | 1.7 | 7.0 | 0.00 | 0.50 | 0.49 | 57 | 1004.4 |
| 20260506140705 | 69 | 239 | 1.7 | 7.0 | 0.00 | 0.50 | 0.49 | 54 | 1004.3 |
| 20260506140214 | 46 | 255 | 0.0 | 0.0 | 0.00 | 0.00 | 0.00 | 84 | 1024.7 |
| 20260506140205 | 69 | 264 | 2.6 | 6.1 | 0.00 | 0.50 | 0.49 | 55 | 1004.4 |
| 20260506135706 | 69 | 283 | 4.3 | 10.4 | 0.00 | 0.50 | 0.49 | 54 | 1004.5 |
| 20260506135214 | 46 | 255 | 0.0 | 0.0 | 0.00 | 0.00 | 0.00 | 84 | 1024.7 |
| 20260506135205 | 69 | 246 | 4.3 | 10.4 | 0.00 | 0.50 | 0.49 | 53 | 1004.5 |
| 20260506134705 | 69 | 269 | 6.1 | 11.3 | 0.00 | 0.50 | 0.49 | 54 | 1004.5 |
| 20260506134214 | 46 | 255 | 0.0 | 0.0 | 0.00 | 0.00 | 0.00 | 84 | 1024.7 |
| 20260506134205 | 69 | 250 | 2.6 | 7.0 | 0.00 | 0.50 | 0.49 | 55 | 1004.5 |
| 20260506133214 | 46 | 255 | 0.0 | 0.0 | 0.00 | 0.00 | 0.00 | 84 | 1024.7 |
| 20260506133206 | 68 | 280 | 4.3 | 10.4 | 0.00 | 0.50 | 0.49 | 58 | 1004.6 |
| 20260506132705 | 68 | 296 | 5.2 | 8.7 | 0.00 | 0.50 | 0.49 | 58 | 1004.6 |
| 20260506131214 | 46 | 255 | 0.0 | 0.0 | 0.00 | 0.00 | 0.00 | 84 | 1024.7 |
| 20260506131205 | 68 | 266 | 5.2 | 10.4 | 0.00 | 0.50 | 0.49 | 58 | 1004.8 |
| 20260506130706 | 68 | 316 | 3.5 | 7.0 | 0.00 | 0.50 | 0.49 | 56 | 1004.9 |
| 20260506130214 | 46 | 255 | 0.0 | 0.0 | 0.00 | 0.00 | 0.00 | 84 | 1024.7 |
| 20260506130205 | 68 | 312 | 6.1 | 10.4 | 0.00 | 0.50 | 0.49 | 59 | 1004.8 |
| 20260506125706 | 68 | 303 | 4.3 | 10.4 | 0.00 | 0.50 | 0.49 | 60 | 1004.9 |
| 20260506125214 | 46 | 255 | 0.0 | 0.0 | 0.00 | 0.00 | 0.00 | 84 | 1024.7 |
| 20260506125205 | 68 | 324 | 5.2 | 11.3 | 0.00 | 0.50 | 0.49 | 59 | 1004.8 |
| 20260506124706 | 68 | 321 | 3.5 | 10.4 | 0.00 | 0.50 | 0.49 | 58 | 1004.9 |
| 20260506123214 | 46 | 255 | 0.0 | 0.0 | 0.00 | 0.00 | 0.00 | 84 | 1024.7 |
| 20260506123205 | 68 | 296 | 5.2 | 7.0 | 0.00 | 0.50 | 0.49 | 61 | 1005.0 |
| 20260506122705 | 67 | 267 | 3.5 | 8.7 | 0.00 | 0.50 | 0.49 | 63 | 1005.0 |
| 20260506122214 | 46 | 255 | 0.0 | 0.0 | 0.00 | 0.00 | 0.00 | 84 | 1024.7 |
| 20260506122205 | 67 | 260 | 5.2 | 10.4 | 0.00 | 0.50 | 0.49 | 62 | 1005.0 |
| 20260506121705 | 66 | 254 | 5.2 | 11.3 | 0.00 | 0.50 | 0.49 | 62 | 1005.0 |
| 20260506121214 | 46 | 255 | 0.0 | 0.0 | 0.00 | 0.00 | 0.00 | 84 | 1024.7 |
| 20260506121205 | 66 | 304 | 5.2 | 8.7 | 0.00 | 0.50 | 0.49 | 64 | 1005.0 |
| 20260506120705 | 66 | 293 | 5.2 | 11.3 | 0.00 | 0.50 | 0.49 | 64 | 1005.0 |
| 20260506120214 | 46 | 255 | 0.0 | 0.0 | 0.00 | 0.00 | 0.00 | 84 | 1024.7 |
| 20260506120205 | 66 | 221 | 3.5 | 10.4 | 0.00 | 0.50 | 0.49 | 64 | 1005.0 |
| 20260506115705 | 67 | 265 | 6.1 | 11.3 | 0.00 | 0.50 | 0.49 | 63 | 1004.9 |
| 20260506115214 | 46 | 255 | 0.0 | 0.0 | 0.00 | 0.00 | 0.00 | 84 | 1024.7 |
| 20260506115205 | 67 | 277 | 6.1 | 10.4 | 0.00 | 0.50 | 0.49 | 63 | 1004.9 |
| 20260506114706 | 66 | 182 | 2.6 | 7.0 | 0.00 | 0.50 | 0.49 | 64 | 1004.9 |
| 20260506114214 | 46 | 255 | 0.0 | 0.0 | 0.00 | 0.00 | 0.00 | 84 | 1024.7 |
| 20260506114205 | 66 | 272 | 4.3 | 6.1 | 0.00 | 0.50 | 0.49 | 64 | 1004.9 |
| 20260506113706 | 66 | 292 | 5.2 | 10.4 | 0.00 | 0.50 | 0.49 | 63 | 1004.9 |
| 20260506113214 | 46 | 255 | 0.0 | 0.0 | 0.00 | 0.00 | 0.00 | 84 | 1024.7 |
| 20260506113205 | 66 | 285 | 5.2 | 10.4 | 0.00 | 0.50 | 0.49 | 62 | 1005.1 |
| 20260506112705 | 67 | 281 | 4.3 | 10.4 | 0.00 | 0.50 | 0.49 | 60 | 1005.1 |
| 20260506112214 | 46 | 255 | 0.0 | 0.0 | 0.00 | 0.00 | 0.00 | 84 | 1024.7 |
| 20260506112205 | 67 | 208 | 5.2 | 14.8 | 0.00 | 0.50 | 0.49 | 58 | 1004.9 |
| 20260506111705 | 67 | 264 | 6.1 | 11.3 | 0.00 | 0.50 | 0.49 | 59 | 1004.9 |
| 20260506111214 | 46 | 255 | 0.0 | 0.0 | 0.00 | 0.00 | 0.00 | 84 | 1024.7 |
| 20260506111205 | 67 | 238 | 6.1 | 12.2 | 0.00 | 0.50 | 0.49 | 59 | 1005.0 |
| 20260506110214 | 46 | 255 | 0.0 | 0.0 | 0.00 | 0.00 | 0.00 | 84 | 1024.7 |
| 20260506110205 | 66 | 202 | 1.7 | 10.4 | 0.00 | 0.50 | 0.49 | 60 | 1005.0 |
| 20260506105214 | 46 | 255 | 0.0 | 0.0 | 0.00 | 0.00 | 0.00 | 84 | 1024.7 |
| 20260506105205 | 67 | 302 | 5.2 | 11.3 | 0.00 | 0.50 | 0.49 | 61 | 1005.1 |
| 20260506104705 | 67 | 241 | 4.3 | 10.4 | 0.00 | 0.50 | 0.49 | 61 | 1005.1 |
| 20260506104214 | 46 | 255 | 0.0 | 0.0 | 0.00 | 0.00 | 0.00 | 84 | 1024.7 |
| 20260506104205 | 67 | 246 | 4.3 | 13.9 | 0.00 | 0.50 | 0.49 | 60 | 1005.0 |
| 20260506103705 | 67 | 141 | 1.7 | 12.2 | 0.00 | 0.50 | 0.49 | 61 | 1004.9 |
| 20260506103214 | 46 | 255 | 0.0 | 0.0 | 0.00 | 0.00 | 0.00 | 84 | 1024.7 |
| 20260506103205 | 67 | 151 | 3.5 | 10.4 | 0.00 | 0.50 | 0.49 | 62 | 1005.0 |
| 20260506102705 | 66 | 302 | 2.6 | 11.3 | 0.00 | 0.50 | 0.49 | 66 | 1005.0 |
| 20260506102214 | 46 | 255 | 0.0 | 0.0 | 0.00 | 0.00 | 0.00 | 84 | 1024.7 |
| 20260506102205 | 65 | 236 | 3.5 | 7.0 | 0.00 | 0.50 | 0.49 | 66 | 1005.0 |
| 20260506101705 | 65 | 159 | 1.7 | 13.9 | 0.00 | 0.50 | 0.49 | 66 | 1005.1 |
| 20260506101214 | 46 | 255 | 0.0 | 0.0 | 0.00 | 0.00 | 0.00 | 84 | 1024.7 |
| 20260506101205 | 65 | 214 | 5.2 | 12.2 | 0.00 | 0.50 | 0.49 | 66 | 1005.0 |
| 20260506100706 | 65 | 189 | 0.9 | 10.4 | 0.00 | 0.50 | 0.49 | 69 | 1005.0 |
| 20260506100214 | 46 | 255 | 0.0 | 0.0 | 0.00 | 0.00 | 0.00 | 84 | 1024.7 |
| 20260506100205 | 65 | 220 | 2.6 | 10.4 | 0.00 | 0.50 | 0.49 | 69 | 1005.0 |
| 20260506095706 | 64 | 213 | 5.2 | 13.9 | 0.00 | 0.50 | 0.49 | 68 | 1005.0 |
| 20260506095214 | 46 | 255 | 0.0 | 0.0 | 0.00 | 0.00 | 0.00 | 84 | 1024.7 |
| 20260506095205 | 64 | 235 | 5.2 | 14.8 | 0.00 | 0.50 | 0.49 | 69 | 1005.1 |
| 20260506094705 | 64 | 177 | 1.7 | 7.0 | 0.00 | 0.50 | 0.49 | 70 | 1005.0 |
| 20260506093705 | 63 | 248 | 4.3 | 10.4 | 0.00 | 0.50 | 0.49 | 73 | 1004.9 |
| 20260506093214 | 46 | 255 | 0.0 | 0.0 | 0.00 | 0.00 | 0.00 | 84 | 1024.7 |
| 20260506093205 | 63 | 180 | 0.9 | 6.1 | 0.00 | 0.50 | 0.49 | 73 | 1004.9 |
| 20260506092705 | 63 | 198 | 4.3 | 10.4 | 0.00 | 0.50 | 0.49 | 73 | 1004.8 |
| 20260506092214 | 46 | 255 | 0.0 | 0.0 | 0.00 | 0.00 | 0.00 | 84 | 1024.7 |
| 20260506092205 | 63 | 243 | 4.3 | 10.4 | 0.00 | 0.50 | 0.49 | 74 | 1004.8 |
| 20260506091705 | 63 | 212 | 4.3 | 8.7 | 0.00 | 0.50 | 0.49 | 76 | 1004.7 |
| 20260506091214 | 46 | 255 | 0.0 | 0.0 | 0.00 | 0.00 | 0.00 | 84 | 1024.7 |
| 20260506091206 | 62 | 190 | 3.5 | 11.3 | 0.00 | 0.50 | 0.49 | 78 | 1004.7 |
| 20260506090705 | 62 | 188 | 1.7 | 7.0 | 0.00 | 0.50 | 0.49 | 79 | 1004.7 |
| 20260506090214 | 46 | 255 | 0.0 | 0.0 | 0.00 | 0.00 | 0.00 | 84 | 1024.7 |
| 20260506090205 | 61 | 173 | 2.6 | 7.8 | 0.00 | 0.50 | 0.49 | 79 | 1004.6 |
| 20260506085214 | 46 | 255 | 0.0 | 0.0 | 0.00 | 0.00 | 0.00 | 84 | 1024.7 |
| 20260506085205 | 61 | 174 | 5.2 | 10.4 | 0.00 | 0.50 | 0.49 | 78 | 1004.6 |
| 20260506084705 | 61 | 185 | 6.1 | 11.3 | 0.00 | 0.50 | 0.49 | 78 | 1004.5 |
| 20260506084214 | 46 | 255 | 0.0 | 0.0 | 0.00 | 0.00 | 0.00 | 84 | 1024.7 |
| 20260506084205 | 61 | 175 | 3.5 | 10.4 | 0.00 | 0.50 | 0.49 | 78 | 1004.4 |
| 20260506083705 | 61 | 206 | 2.6 | 6.1 | 0.00 | 0.50 | 0.49 | 79 | 1004.3 |
| 20260506083214 | 46 | 255 | 0.0 | 0.0 | 0.00 | 0.00 | 0.00 | 84 | 1024.7 |
| 20260506083204 | 61 | 222 | 1.7 | 5.2 | 0.00 | 0.50 | 0.49 | 79 | 1004.2 |
| 20260506082705 | 61 | 180 | 1.7 | 6.1 | 0.00 | 0.50 | 0.49 | 79 | 1004.2 |
| 20260506082214 | 46 | 255 | 0.0 | 0.0 | 0.00 | 0.00 | 0.00 | 84 | 1024.7 |
| 20260506082205 | 61 | 213 | 1.7 | 5.2 | 0.00 | 0.50 | 0.49 | 80 | 1004.2 |
| 20260506081705 | 61 | 169 | 4.3 | 7.0 | 0.00 | 0.50 | 0.49 | 79 | 1004.1 |
| 20260506081214 | 46 | 255 | 0.0 | 0.0 | 0.00 | 0.00 | 0.00 | 84 | 1024.7 |
| 20260506081205 | 61 | 196 | 1.7 | 5.2 | 0.00 | 0.50 | 0.49 | 79 | 1004.1 |
| 20260506080705 | 61 | 215 | 5.2 | 7.8 | 0.00 | 0.50 | 0.49 | 78 | 1004.1 |
| 20260506080214 | 46 | 255 | 0.0 | 0.0 | 0.00 | 0.00 | 0.00 | 84 | 1024.7 |
| 20260506080205 | 62 | 193 | 2.6 | 7.8 | 0.00 | 0.50 | 0.49 | 78 | 1003.9 |
| 20260506073214 | 46 | 255 | 0.0 | 0.0 | 0.00 | 0.00 | 0.00 | 84 | 1024.7 |
| 20260506073204 | 61 | 181 | 5.2 | 12.2 | 0.00 | 0.50 | 0.49 | 80 | 1004.0 |
| 20260506072705 | 61 | 168 | 3.5 | 7.8 | 0.00 | 0.50 | 0.49 | 80 | 1004.0 |
| 20260506072214 | 46 | 255 | 0.0 | 0.0 | 0.00 | 0.00 | 0.00 | 84 | 1024.7 |
| 20260506072205 | 61 | 199 | 2.6 | 10.4 | 0.00 | 0.50 | 0.49 | 81 | 1003.9 |
| 20260506071213 | 46 | 255 | 0.0 | 0.0 | 0.00 | 0.00 | 0.00 | 84 | 1024.7 |
| 20260506071205 | 60 | 172 | 3.5 | 8.7 | 0.00 | 0.50 | 0.49 | 82 | 1004.0 |
| 20260506070705 | 60 | 162 | 1.7 | 10.4 | 0.00 | 0.50 | 0.49 | 82 | 1004.2 |
| 20260506070213 | 46 | 255 | 0.0 | 0.0 | 0.00 | 0.00 | 0.00 | 84 | 1024.7 |
| 20260506070204 | 60 | 157 | 4.3 | 10.4 | 0.00 | 0.50 | 0.49 | 82 | 1004.3 |